createdAt,value
2023-01-22T00:01:09.357Z,61.00
2023-01-22T00:03:37.243Z,60.30
2023-01-22T00:06:04.780Z,44.80
2023-01-22T00:08:32.624Z,53.50
2023-01-22T00:11:00.145Z,42.90
2023-01-22T00:13:28.009Z,46.30
2023-01-22T00:15:57.613Z,43.80
2023-01-22T00:18:25.063Z,48.60
2023-01-22T00:20:53.593Z,45.60
2023-01-22T00:23:21.524Z,39.50
2023-01-22T00:25:49.037Z,42.10
2023-01-22T00:28:17.760Z,41.10
2023-01-22T00:30:45.063Z,47.40
2023-01-22T00:33:12.630Z,50.10
2023-01-22T00:35:40.137Z,51.10
2023-01-22T00:38:07.607Z,56.80
2023-01-22T00:40:34.976Z,48.90
2023-01-22T00:43:02.712Z,50.60
2023-01-22T00:45:30.995Z,47.60
2023-01-22T00:48:00.888Z,49.20
2023-01-22T00:50:28.477Z,55.50
2023-01-22T00:52:56.112Z,60.10
2023-01-22T00:55:23.709Z,53.40
2023-01-22T00:57:51.165Z,53.20
2023-01-22T01:00:20.483Z,52.90
2023-01-22T01:03:07.370Z,51.10
2023-01-22T01:05:35.270Z,50.60
2023-01-22T01:08:02.752Z,49.30
2023-01-22T01:10:30.282Z,50.00
2023-01-22T01:12:59.078Z,56.20
2023-01-22T01:15:26.429Z,47.90
2023-01-22T01:17:53.785Z,56.10
2023-01-22T01:20:21.210Z,56.90
2023-01-22T01:22:48.638Z,56.60
2023-01-22T01:25:16.327Z,58.40
2023-01-22T01:27:43.665Z,53.80
2023-01-22T01:30:11.326Z,69.00
2023-01-22T01:32:38.885Z,63.50
2023-01-22T01:35:06.986Z,53.50
2023-01-22T01:37:34.480Z,55.30
2023-01-22T01:40:01.966Z,60.50
2023-01-22T01:42:35.293Z,56.10
2023-01-22T01:45:26.216Z,56.30
2023-01-22T01:48:07.375Z,62.20
2023-01-22T01:50:34.883Z,46.80
2023-01-22T01:53:02.157Z,54.00
2023-01-22T01:55:30.640Z,44.70
2023-01-22T01:58:01.303Z,55.20
2023-01-22T02:00:29.209Z,57.90
2023-01-22T02:02:59.317Z,58.60
2023-01-22T02:05:32.603Z,57.70
2023-01-22T02:08:00.806Z,48.30
2023-01-22T02:10:28.394Z,56.90
2023-01-22T02:12:57.152Z,60.90
2023-01-22T02:15:24.526Z,57.10
2023-01-22T02:17:52.150Z,45.90
2023-01-22T02:20:20.164Z,44.50
2023-01-22T02:22:50.009Z,48.20
2023-01-22T02:25:18.919Z,43.80
2023-01-22T02:27:46.505Z,48.00
2023-01-22T02:30:14.586Z,39.70
2023-01-22T02:32:41.987Z,46.10
2023-01-22T02:35:09.685Z,42.10
2023-01-22T02:37:37.712Z,43.60
2023-01-22T02:40:06.870Z,44.70
2023-01-22T02:42:34.416Z,49.70
2023-01-22T02:45:02.116Z,47.30
2023-01-22T02:47:29.892Z,51.80
2023-01-22T02:49:57.319Z,54.70
2023-01-22T02:52:24.905Z,50.10
2023-01-22T02:54:52.620Z,58.50
2023-01-22T02:57:20.306Z,48.80
2023-01-22T02:59:47.877Z,52.20
2023-01-22T03:02:15.628Z,56.10
2023-01-22T03:04:43.381Z,45.60
2023-01-22T03:07:10.882Z,39.20
2023-01-22T03:09:38.586Z,47.70
2023-01-22T03:12:06.639Z,57.10
2023-01-22T03:14:54.347Z,57.50
2023-01-22T03:17:40.616Z,46.40
2023-01-22T03:20:27.778Z,43.70
2023-01-22T03:22:55.223Z,38.80
2023-01-22T03:25:22.816Z,54.10
2023-01-22T03:28:08.987Z,36.80
2023-01-22T03:30:37.350Z,43.50
2023-01-22T03:33:04.972Z,45.70
2023-01-22T03:35:32.812Z,42.00
2023-01-22T03:38:05.683Z,40.60
2023-01-22T03:40:32.967Z,58.00
2023-01-22T03:43:00.991Z,49.30
2023-01-22T03:45:28.928Z,54.00
2023-01-22T03:47:57.045Z,50.50
2023-01-22T03:50:29.744Z,50.30
2023-01-22T03:52:58.170Z,53.80
2023-01-22T03:55:28.322Z,52.50
2023-01-22T03:57:55.754Z,55.80
2023-01-22T04:00:23.516Z,59.70
2023-01-22T04:02:52.827Z,66.50
2023-01-22T04:05:21.428Z,65.40
2023-01-22T04:07:50.730Z,65.00
2023-01-22T04:10:21.499Z,79.60
2023-01-22T04:12:49.600Z,70.60
2023-01-22T04:15:20.334Z,78.50
2023-01-22T04:17:49.330Z,74.90
2023-01-22T04:20:46.707Z,74.00
2023-01-22T04:23:30.116Z,80.40
2023-01-22T04:25:58.023Z,80.20
2023-01-22T04:28:25.466Z,74.20
2023-01-22T04:30:55.212Z,68.70
2023-01-22T04:33:33.531Z,65.30
2023-01-22T04:36:06.273Z,79.60
2023-01-22T04:38:34.074Z,84.50
2023-01-22T04:41:01.492Z,80.80
2023-01-22T04:43:29.038Z,78.70
2023-01-22T04:45:56.395Z,77.20
2023-01-22T04:48:29.053Z,91.80
2023-01-22T04:50:56.455Z,91.80
2023-01-22T04:53:26.763Z,98.00
2023-01-22T04:55:54.279Z,93.40
2023-01-22T04:58:22.611Z,97.70
2023-01-22T05:00:51.559Z,97.10
2023-01-22T05:03:19.218Z,105.10
2023-01-22T05:05:46.878Z,95.30
2023-01-22T05:08:14.630Z,100.20
2023-01-22T05:10:42.371Z,91.30
2023-01-22T05:13:13.421Z,89.30
2023-01-22T05:15:42.838Z,98.00
2023-01-22T05:18:12.960Z,88.50
2023-01-22T05:20:47.618Z,101.00
2023-01-22T05:23:15.839Z,101.80
2023-01-22T05:25:50.563Z,90.70
2023-01-22T05:28:23.907Z,95.50
2023-01-22T05:31:20.573Z,83.70
2023-01-22T05:33:53.850Z,82.10
2023-01-22T05:36:22.916Z,81.50
2023-01-22T05:38:51.279Z,73.70
2023-01-22T05:41:18.947Z,80.90
2023-01-22T05:43:46.497Z,77.10
2023-01-22T05:46:18.677Z,73.60
2023-01-22T05:49:24.577Z,76.70
2023-01-22T05:51:55.404Z,71.20
2023-01-22T05:54:23.002Z,62.50
2023-01-22T05:56:50.978Z,60.90
2023-01-22T05:59:18.821Z,62.00
2023-01-22T06:01:55.454Z,76.20
2023-01-22T06:04:22.963Z,68.50
2023-01-22T06:06:50.490Z,57.20
2023-01-22T06:09:20.143Z,57.80
2023-01-22T06:11:47.782Z,60.60
2023-01-22T06:14:15.784Z,57.90
2023-01-22T06:16:43.398Z,51.30
2023-01-22T06:19:29.932Z,69.30
2023-01-22T06:21:57.498Z,57.70
2023-01-22T06:24:30.251Z,50.80
2023-01-22T06:26:59.065Z,61.40
2023-01-22T06:29:35.077Z,61.60
2023-01-22T06:32:02.667Z,56.70
2023-01-22T06:34:30.342Z,52.00
2023-01-22T06:36:59.746Z,60.20
2023-01-22T06:39:28.597Z,56.50
2023-01-22T06:44:28.408Z,56.80
2023-01-22T06:46:55.878Z,59.70
2023-01-22T06:49:27.671Z,51.20
2023-01-22T06:51:55.319Z,61.10
2023-01-22T06:54:23.615Z,46.60
2023-01-22T06:56:51.236Z,38.50
2023-01-22T06:59:18.976Z,58.20
2023-01-22T07:01:46.546Z,42.80
2023-01-22T07:04:14.039Z,57.50
2023-01-22T07:06:41.600Z,48.30
2023-01-22T07:09:09.052Z,56.30
2023-01-22T07:11:36.429Z,54.00
2023-01-22T07:14:04.032Z,43.10
2023-01-22T07:16:32.465Z,52.10
2023-01-22T07:19:00.550Z,57.20
2023-01-22T07:21:28.194Z,54.50
2023-01-22T07:23:55.999Z,55.10
2023-01-22T07:26:23.526Z,49.70
2023-01-22T07:28:51.135Z,48.50
2023-01-22T07:31:18.704Z,44.50
2023-01-22T07:33:46.441Z,53.30
2023-01-22T07:36:13.926Z,43.30
2023-01-22T07:38:41.710Z,45.80
2023-01-22T07:41:20.532Z,48.10
2023-01-22T07:43:53.712Z,43.60
2023-01-22T07:46:21.099Z,45.70
2023-01-22T07:48:48.555Z,41.60
2023-01-22T07:51:16.198Z,39.30
2023-01-22T07:53:43.717Z,48.40
2023-01-22T07:56:11.328Z,58.40
2023-01-22T07:58:39.738Z,47.30
2023-01-22T08:01:07.711Z,42.90
2023-01-22T08:03:35.183Z,44.30
2023-01-22T08:06:03.208Z,43.90
2023-01-22T08:08:30.842Z,40.10
2023-01-22T08:10:58.857Z,48.30
2023-01-22T08:13:26.646Z,52.30
2023-01-22T08:15:57.089Z,63.00
2023-01-22T08:18:24.516Z,39.30
2023-01-22T08:20:54.982Z,46.90
2023-01-22T08:23:22.660Z,53.70
2023-01-22T08:25:50.191Z,55.00
2023-01-22T08:28:17.616Z,36.20
2023-01-22T08:30:46.646Z,49.80
2023-01-22T08:33:16.125Z,43.30
2023-01-22T08:35:43.583Z,40.10
2023-01-22T08:38:11.405Z,40.60
2023-01-22T08:40:38.853Z,31.80
2023-01-22T08:43:06.532Z,49.80
2023-01-22T08:45:34.025Z,37.80
2023-01-22T08:48:01.551Z,47.00
2023-01-22T08:50:29.946Z,43.30
2023-01-22T08:52:58.204Z,84.00
2023-01-22T08:55:27.873Z,74.20
2023-01-22T08:57:56.335Z,55.60
2023-01-22T09:00:24.706Z,51.50
2023-01-22T09:02:52.433Z,42.40
2023-01-22T09:05:19.827Z,38.20
2023-01-22T09:07:47.582Z,42.50
2023-01-22T09:10:15.264Z,45.00
2023-01-22T09:12:42.757Z,34.50
2023-01-22T09:15:10.872Z,33.80
2023-01-22T09:17:38.570Z,39.70
2023-01-22T09:20:06.351Z,28.40
2023-01-22T09:22:34.028Z,28.30
2023-01-22T09:25:01.578Z,51.40
2023-01-22T09:27:29.183Z,59.90
2023-01-22T09:29:56.637Z,58.00
2023-01-22T09:32:24.365Z,49.90
2023-01-22T09:34:52.011Z,71.60
2023-01-22T09:37:19.764Z,37.60
2023-01-22T09:39:50.769Z,48.60
2023-01-22T09:42:28.507Z,38.20
2023-01-22T09:44:57.826Z,36.20
2023-01-22T09:47:47.647Z,35.50
2023-01-22T09:50:26.601Z,40.40
2023-01-22T09:52:55.121Z,59.90
2023-01-22T09:55:24.450Z,32.90
2023-01-22T09:57:53.058Z,34.10
2023-01-22T10:00:40.272Z,33.80
2023-01-22T10:03:22.573Z,54.50
2023-01-22T10:05:59.774Z,39.10
2023-01-22T10:08:32.821Z,47.90
2023-01-22T10:11:01.440Z,36.70
2023-01-22T10:13:34.650Z,36.90
2023-01-22T10:16:02.327Z,40.50
2023-01-22T10:19:03.084Z,36.80
2023-01-22T10:21:45.732Z,36.40
2023-01-22T10:26:52.781Z,41.80
2023-01-22T10:29:34.299Z,43.20
2023-01-22T10:32:21.810Z,39.10
2023-01-22T10:35:05.246Z,33.60
2023-01-22T10:37:46.677Z,40.40
2023-01-22T10:40:21.803Z,40.50
2023-01-22T10:43:12.385Z,31.90
2023-01-22T10:45:51.840Z,33.30
2023-01-22T10:48:19.419Z,42.60
2023-01-22T10:50:47.190Z,45.90
2023-01-22T10:53:33.961Z,45.40
2023-01-22T10:56:04.267Z,41.40
2023-01-22T10:58:37.093Z,41.60
2023-01-22T11:01:07.413Z,46.10
2023-01-22T11:03:36.961Z,39.10
2023-01-22T11:06:16.275Z,37.10
2023-01-22T11:08:47.611Z,34.90
2023-01-22T11:11:15.971Z,47.30
2023-01-22T11:13:54.344Z,36.70
2023-01-22T11:16:23.279Z,30.60
2023-01-22T11:19:07.176Z,45.70
2023-01-22T11:21:52.518Z,53.10
2023-01-22T11:24:23.354Z,34.60
2023-01-22T11:27:16.952Z,35.70
2023-01-22T11:30:03.225Z,43.60
2023-01-22T11:33:01.815Z,27.40
2023-01-22T11:35:41.780Z,26.00
2023-01-22T11:38:31.625Z,26.10
2023-01-22T11:41:09.789Z,32.80
2023-01-22T11:44:02.373Z,48.00
2023-01-22T11:49:06.871Z,47.70
2023-01-22T11:52:06.674Z,43.40
2023-01-22T11:54:37.378Z,49.80
2023-01-22T11:57:19.503Z,37.50
2023-01-22T12:00:10.483Z,85.70
2023-01-22T12:02:53.673Z,125.10
2023-01-22T12:05:37.783Z,105.80
2023-01-22T12:08:20.829Z,120.40
2023-01-22T12:11:17.464Z,195.00
2023-01-22T12:13:59.359Z,143.70
2023-01-22T12:16:39.528Z,118.70
2023-01-22T12:19:26.990Z,97.50
2023-01-22T12:22:15.357Z,108.90
2023-01-22T12:24:49.405Z,118.90
2023-01-22T12:27:27.288Z,101.10
2023-01-22T12:30:03.264Z,65.20
2023-01-22T12:32:30.691Z,100.30
2023-01-22T12:35:09.325Z,124.20
2023-01-22T12:37:55.969Z,127.30
2023-01-22T12:40:45.113Z,94.90
2023-01-22T12:43:12.877Z,102.20
2023-01-22T12:45:53.138Z,102.70
2023-01-22T12:48:35.851Z,183.00
2023-01-22T12:51:03.771Z,172.20
2023-01-22T12:53:35.053Z,80.70
2023-01-22T12:56:04.799Z,84.20
2023-01-22T12:58:40.799Z,89.80
2023-01-22T13:01:12.758Z,150.10
2023-01-22T13:03:41.228Z,181.40
2023-01-22T13:06:30.577Z,126.90
2023-01-22T13:08:58.007Z,159.00
2023-01-22T13:11:32.516Z,124.90
2023-01-22T13:14:14.783Z,125.10
2023-01-22T13:17:00.716Z,152.80
2023-01-22T13:19:30.415Z,124.80
2023-01-22T13:22:01.215Z,123.60
2023-01-22T13:24:28.737Z,96.20
2023-01-22T13:27:00.858Z,126.40
2023-01-22T16:49:31.560Z,29.50
2023-01-22T16:52:12.997Z,27.70
2023-01-22T16:54:44.609Z,26.50
2023-01-22T16:57:13.759Z,31.80
2023-01-22T16:59:41.281Z,27.00
2023-01-22T17:02:13.880Z,21.00
2023-01-22T17:04:41.811Z,28.30
2023-01-22T17:07:15.379Z,25.10
2023-01-22T17:09:48.911Z,23.90
2023-01-22T17:12:16.617Z,21.50
2023-01-22T17:14:46.352Z,12.50
2023-01-22T17:17:13.972Z,10.10
2023-01-22T17:19:41.751Z,17.30
2023-01-22T17:22:10.676Z,22.00
2023-01-22T17:24:38.082Z,16.50
2023-01-22T17:27:05.563Z,16.40
2023-01-22T17:29:34.993Z,34.30
2023-01-22T17:32:03.428Z,39.40
2023-01-22T17:34:31.364Z,64.60
2023-01-22T17:36:59.251Z,62.20
2023-01-22T17:39:28.187Z,50.70
2023-01-22T17:41:56.139Z,52.20
2023-01-22T17:44:26.538Z,44.10
2023-01-22T17:46:56.270Z,39.50
2023-01-22T17:49:23.859Z,44.50
2023-01-22T17:51:51.537Z,54.40
2023-01-22T17:54:20.358Z,33.10
2023-01-22T17:56:49.579Z,34.90
2023-01-22T17:59:17.234Z,40.00
2023-01-22T18:01:45.475Z,33.60
2023-01-22T18:04:13.639Z,42.90
2023-01-22T18:06:42.658Z,38.00
2023-01-22T18:09:11.065Z,31.70
2023-01-22T18:11:38.542Z,25.10
2023-01-22T18:14:07.678Z,30.60
2023-01-22T18:16:37.477Z,39.30
2023-01-22T18:19:07.469Z,33.90
2023-01-22T18:21:36.468Z,33.10
2023-01-22T18:24:05.234Z,67.00
2023-01-22T18:26:33.103Z,49.50
2023-01-22T18:29:00.987Z,36.70
2023-01-22T18:31:29.129Z,43.40
2023-01-22T18:34:01.211Z,37.40
2023-01-22T18:36:30.938Z,44.90
2023-01-22T18:39:03.403Z,96.00
2023-01-22T18:41:31.019Z,72.20
2023-01-22T18:44:00.449Z,56.50
2023-01-22T18:46:33.393Z,82.90
2023-01-22T18:49:03.748Z,86.70
2023-01-22T18:51:32.097Z,68.60
2023-01-22T18:54:00.949Z,36.50
2023-01-22T18:56:28.724Z,37.20
2023-01-22T18:58:57.496Z,44.60
2023-01-22T19:01:27.195Z,41.70
2023-01-22T19:03:59.455Z,36.40
2023-01-22T19:06:29.448Z,63.50
2023-01-22T19:08:58.579Z,78.90
2023-01-22T19:11:26.481Z,104.70
2023-01-22T19:13:54.679Z,143.80
2023-01-22T19:16:23.031Z,138.70
2023-01-22T19:18:58.214Z,116.80
2023-01-22T19:21:26.260Z,116.20
2023-01-22T19:23:56.007Z,121.40
2023-01-22T19:26:26.085Z,75.10
2023-01-22T19:28:56.261Z,70.20
2023-01-22T19:31:26.085Z,95.10
2023-01-22T19:33:54.705Z,91.80
2023-01-22T19:36:23.573Z,75.10
2023-01-22T19:38:51.249Z,58.00
2023-01-22T19:41:19.078Z,48.80
2023-01-22T19:43:47.105Z,50.10
2023-01-22T19:46:15.061Z,51.90
2023-01-22T19:48:42.730Z,63.10
2023-01-22T19:51:12.687Z,68.70
2023-01-22T19:53:40.518Z,60.10
2023-01-22T19:56:23.383Z,55.20
2023-01-22T19:58:53.477Z,54.50
2023-01-22T20:01:21.476Z,89.60
2023-01-22T20:03:49.269Z,100.40
2023-01-22T20:06:18.253Z,119.40
2023-01-22T20:08:46.250Z,121.40
2023-01-22T20:11:14.166Z,91.00
2023-01-22T20:13:43.425Z,97.40
2023-01-22T20:16:20.847Z,128.30
2023-01-22T20:18:48.814Z,146.50
2023-01-22T20:21:17.268Z,170.60
2023-01-22T20:23:45.837Z,187.40
2023-01-22T20:26:13.930Z,120.70
2023-01-22T20:28:41.494Z,93.70
2023-01-22T20:31:12.858Z,48.80
2023-01-22T20:33:40.437Z,47.90
2023-01-22T20:36:10.677Z,69.30
2023-01-22T20:38:38.261Z,84.20
2023-01-22T20:41:09.358Z,82.60
2023-01-22T20:43:37.806Z,79.10
2023-01-22T20:46:10.854Z,77.70
2023-01-22T20:48:38.658Z,85.50
2023-01-22T20:51:15.311Z,96.00
2023-01-22T20:53:44.074Z,75.30
2023-01-22T20:56:13.558Z,126.50
2023-01-22T20:58:41.100Z,124.10
2023-01-22T21:01:16.719Z,153.70
2023-01-22T21:03:44.384Z,102.60
2023-01-22T21:06:14.490Z,123.00
2023-01-22T21:08:43.008Z,144.70
2023-01-22T21:11:12.469Z,117.20
2023-01-22T21:13:40.123Z,107.70
2023-01-22T21:16:16.148Z,132.90
2023-01-22T21:18:44.624Z,137.10
2023-01-22T21:21:14.356Z,169.90
2023-01-22T21:23:42.153Z,126.20
2023-01-22T21:26:12.236Z,78.00
2023-01-22T21:28:42.748Z,77.10
2023-01-22T21:31:11.792Z,80.10
2023-01-22T21:33:39.872Z,76.70
2023-01-22T21:36:08.166Z,91.10
2023-01-22T21:38:35.843Z,105.30
2023-01-22T21:41:17.521Z,85.30
2023-01-22T21:44:04.923Z,75.20
2023-01-22T21:46:38.083Z,114.70
2023-01-22T21:49:16.557Z,62.80
2023-01-22T21:51:51.875Z,45.90
2023-01-22T21:54:22.711Z,56.90
2023-01-22T21:56:50.092Z,43.90
2023-01-22T21:59:17.615Z,57.50
2023-01-22T22:01:45.298Z,51.40
2023-01-22T22:04:13.175Z,59.50
2023-01-22T22:06:40.779Z,50.40
2023-01-22T22:09:11.837Z,55.60
2023-01-22T22:11:39.188Z,68.20
2023-01-22T22:14:09.837Z,50.70
2023-01-22T22:16:37.580Z,48.60
2023-01-22T22:19:05.098Z,67.40
2023-01-22T22:21:32.989Z,38.60
2023-01-22T22:24:00.825Z,47.20
2023-01-22T22:26:28.519Z,44.10
2023-01-22T22:28:56.038Z,46.50
2023-01-22T22:31:23.445Z,46.60
2023-01-22T22:33:52.319Z,49.80
2023-01-22T22:36:21.552Z,47.80
2023-01-22T22:38:49.174Z,43.20
2023-01-22T22:41:21.254Z,59.60
2023-01-22T22:43:51.975Z,46.80
2023-01-22T22:46:22.943Z,50.60
2023-01-22T22:48:51.204Z,45.00
2023-01-22T22:51:21.351Z,66.90
2023-01-22T22:53:51.616Z,82.00
2023-01-22T22:56:19.226Z,79.80
2023-01-22T22:58:46.642Z,71.50
2023-01-22T23:01:16.209Z,61.20
2023-01-22T23:03:43.895Z,83.60
2023-01-22T23:06:16.779Z,76.00
2023-01-22T23:08:46.003Z,57.90
2023-01-22T23:11:14.928Z,51.50
2023-01-22T23:13:48.417Z,50.90
2023-01-22T23:16:19.902Z,61.80
2023-01-22T23:18:48.920Z,45.80
2023-01-22T23:21:19.454Z,66.20
2023-01-22T23:23:47.047Z,66.90
2023-01-22T23:26:16.574Z,50.00
2023-01-22T23:28:44.657Z,77.60
2023-01-22T23:31:13.584Z,67.00
2023-01-22T23:33:41.412Z,56.30
2023-01-22T23:36:13.370Z,43.60
2023-01-22T23:38:41.125Z,60.20
2023-01-22T23:41:10.184Z,60.70
2023-01-22T23:43:37.630Z,73.10
2023-01-22T23:46:09.589Z,63.10
2023-01-22T23:48:37.329Z,53.30
2023-01-22T23:51:05.120Z,51.80
2023-01-22T23:53:35.082Z,51.40
2023-01-22T23:56:03.174Z,45.80
2023-01-22T23:58:30.572Z,50.80
